Terminal Aerodrome Forecast
Issued by NWS

Home | Current Version | Previous Version | Text Only | Print | Product List | Glossary On
Versions: 1 2 3 4 5 6 7 8 9 10 11 12 13 14 15 16 17 18
000
FTUS43 KDVN 162332
TAFBRL
TAF
KBRL 162332Z 1700/1724 09004KT 1 1/2SM -DZ BR OVC003
     FM170100 11004KT 1/2SM -DZ FG OVC002
      TEMPO 1702/1705 2SM SHRA BR OVC004
     FM170800 28008KT 1SM -DZ BR OVC004
     FM171600 28009KT 4SM BR OVC007=

USA.gov is the U.S. government's official web portal to all federal, state and local government web resources and services.